Hightstown, New Jersey
Current Conditions -  °F | °C
As of 9:41 AM on Friday 24 Oct 2014 (Local Time) from KTTN Reporting Station
Overcast Overcast  
Wind Chill: 13°   Ceiling: 3100
Heat Index: 13°   Visibility: 10mi
Dew Point:   Wind: 14mph
Humidity: 62%   Direction: 360°N
Pressure: 29.85"   Gusts: 23mph
Location:  40.27°N, 74.52°W
Report Text: KTTN 241341Z 36012G20KT 10SM OVC031 13/06 A2985 RMK AO2 T01280056
Loading
Personal Weather Stations






























Interactive Weather Map
Tropical Storm Tracking
New forecast layout! Learn more

10-Day Weather Forecast

Advertisements
Track Severe Weather on mobile